Nearby METAR Reports

 

LIBG - Grottaglie(Civ/A, Italy
Distance from station: NE 13km
Ultima actualizare: 22/01/2021 09:50
Few Clouds
Few Clouds
 Vânt dela S
Vântul: S 7 km/h
Temperatura: 14°C
Punct de rouă: 9°C
Umiditate: 72%
Barometru: 1017 hPa
Clouds: Few Clouds
Visibility: 10 km
Cloud details: Few Clouds 1372 m
2021/01/22 08:50 LIBG 220850Z 17004KT 090V210 9999 FEW045 14/09 Q1017
LIBH - Marina Di Ginosa, Italy
Distance from station: V 33km
Ultima actualizare: 20/01/2021 19:55
NOT Current
Senin
Senin
 Vânt dela SV
Vântul: SV 13 km/h
Temperatura: 12°C
Punct de rouă: 8°C
Umiditate: 77%
Barometru: 1021 hPa
Sumar: Senin
Visibility: greater than 10 km
2021/01/20 18:55 LIBH 201855Z 23007KT CAVOK 12/08 Q1021 RMK FEW FEW100 QUK / QUL / VIS MAR 30 KM VIS MIN 9999
 
LIBV - Gioia Del Colle, Italy
Distance from station: NV 45km
Ultima actualizare: 20/01/2021 19:55
NOT Current
Parțial înorat
Parțial înorat
 Vânt dela ESE
Vântul: ESE 15 km/h
Temperatura: 7°C
Wind Chill: 4°C
Punct de rouă: 7°C
Umiditate: 100%
Barometru: 1022 hPa
Clouds: Parțial înorat
Visibility: 10 km
Cloud details: Parțial înorat 1524 m
2021/01/20 18:55 LIBV 201855Z 12008KT 9999 SCT050 07/07 Q1022 RMK BKN SCT200 VIS MIN 9999 WIND THR32 13008KT WIND THR14 13007KT BLU
LIBR - Brindisi/Casale, Italy
Distance from station: ENE 62km
Ultima actualizare: 22/01/2021 10:50
Senin
Senin
 Vânt dela SSV
Vântul: SSV 22 km/h
Temperatura: 15°C
Punct de rouă: 11°C
Umiditate: 77%
Barometru: 1017 hPa
Sumar: Senin
Visibility: greater than 10 km
2021/01/22 09:50 LIBR 220950Z 20012KT CAVOK 15/11 Q1017
 
LIBN - Lecce (it-Afb), Italy
Distance from station: ESE 79km
Ultima actualizare: 20/01/2021 19:55
NOT Current
Senin
Senin
 Vânt dela SE
Vântul: SE 9 km/h
Temperatura: 8°C
Wind Chill: 6°C
Punct de rouă: 7°C
Umiditate: 93%
Barometru: 1025 hPa
Sumar: Senin
Visibility: greater than 10 km
2021/01/20 18:55 LIBN 201855Z 13005KT CAVOK 08/07 Q1025 RMK SCT SCT100 VIS MIN 9999 WIND THR14 14006KT WIND THR32 14006KT BLU
LIBD - Bari/Palese Macc, Italy
Distance from station: NNV 85km
Ultima actualizare: 22/01/2021 10:50
Senin
Senin
 Vânt dela SSV
Vântul: SSV 20 km/h
Temperatura: 16°C
Punct de rouă: 5°C
Umiditate: 48%
Barometru: 1015 hPa
Sumar: Senin
Visibility: greater than 10 km
2021/01/22 09:50 LIBD 220950Z 20011KT CAVOK 16/05 Q1015